Main page
METAR-TAF:

METAR-TAF

Airports :

Longyearbyen, Longyear,

Svalbard Airport

latitude: Norway, longitude: 78-15N, elevation: 015-28E m

Current weather observation

The report was made 48 minutes ago, at 20:50 UTC
Wind 3 kt from the East/Northeast, varying between North/Northwest and South/Southeast
Temperature -8°C
Humidity 62%
Pressure 1012 hPa
Visibility 10 km or more
Scattered clouds at a height of 3500 ft

METAR: ENSB 212050Z 07003KT 330V150 9999 SCT035 M08/M14 Q1012 RMK WIND 1400FT 03006KT

Time: 21:38 (21:38 UTC)

Forecast

Forecast valid from 21 at 18 UTC to 22 at 18 UTC
Wind 15 kt from the Northwest
Visibility 10 km or more
Few clouds at a height of 2000 ft
Broken clouds at a height of 4000 ft
Becoming
from 21 at 21 UTC to 21 at 24 UTC
Wind 5 kt from variable directions
Becoming
from 22 at 10 UTC to 22 at 12 UTC
Wind 10 kt from the East/Southeast

TAF: ENSB 2118/2218 32015KT 9999 FEW020 BKN040 BECMG 2121/2124 VRB05KT BECMG 2210/2212 12010KT

Weather observations and forecasts of more than 4000 airports (METAR and TAF reports).

The available stations are represented by yellow and red dots on the map.

Hover mouse over dot to see the name of the station.

Then click to see weather observations and forecasts.

To change the map : click on the green buttons with a black cross to zoom in, on the green button with a dash to zoom out, or on the green arrows for adjacent maps.


METAR-TAF: